sensor_id;sensor_type;location;lat;lon;timestamp;pressure;altitude;pressure_sealevel;temperature;humidity
40570;BME280;26270;34.428;-119.710;2023-01-27T00:02:07;102261.16;;;19.93;25.63
40570;BME280;26270;34.428;-119.710;2023-01-27T00:04:36;102262.17;;;19.99;25.86
40570;BME280;26270;34.428;-119.710;2023-01-27T00:07:04;102262.79;;;20.00;25.48
40570;BME280;26270;34.428;-119.710;2023-01-27T00:09:32;102267.19;;;19.89;25.96
40570;BME280;26270;34.428;-119.710;2023-01-27T00:12:00;102269.79;;;19.90;25.88
40570;BME280;26270;34.428;-119.710;2023-01-27T00:14:28;102272.70;;;19.76;25.88
40570;BME280;26270;34.428;-119.710;2023-01-27T00:16:57;102273.38;;;19.75;25.98
40570;BME280;26270;34.428;-119.710;2023-01-27T00:19:25;102274.59;;;19.76;26.41
40570;BME280;26270;34.428;-119.710;2023-01-27T00:21:54;102273.10;;;19.94;25.81
40570;BME280;26270;34.428;-119.710;2023-01-27T00:24:23;102270.88;;;19.89;25.61
40570;BME280;26270;34.428;-119.710;2023-01-27T00:26:51;102272.53;;;19.91;25.97
40570;BME280;26270;34.428;-119.710;2023-01-27T00:29:19;102271.10;;;19.94;25.83
40570;BME280;26270;34.428;-119.710;2023-01-27T00:31:47;102272.01;;;19.72;26.31
40570;BME280;26270;34.428;-119.710;2023-01-27T00:34:16;102273.66;;;20.04;26.39
40570;BME280;26270;34.428;-119.710;2023-01-27T00:36:44;102273.53;;;20.07;26.36
40570;BME280;26270;34.428;-119.710;2023-01-27T00:39:14;102273.46;;;20.10;25.74
40570;BME280;26270;34.428;-119.710;2023-01-27T00:41:42;102270.12;;;20.08;25.63
40570;BME280;26270;34.428;-119.710;2023-01-27T00:44:11;102268.61;;;19.87;25.60
40570;BME280;26270;34.428;-119.710;2023-01-27T00:46:40;102267.57;;;19.82;25.84
40570;BME280;26270;34.428;-119.710;2023-01-27T00:49:09;102264.04;;;19.65;25.33
40570;BME280;26270;34.428;-119.710;2023-01-27T00:51:37;102268.25;;;19.56;26.03
40570;BME280;26270;34.428;-119.710;2023-01-27T00:54:06;102268.85;;;19.55;26.15
40570;BME280;26270;34.428;-119.710;2023-01-27T00:56:35;102274.09;;;19.40;25.71
40570;BME280;26270;34.428;-119.710;2023-01-27T00:59:02;102273.33;;;19.28;26.65
40570;BME280;26270;34.428;-119.710;2023-01-27T01:01:31;102273.92;;;19.20;26.96
40570;BME280;26270;34.428;-119.710;2023-01-27T01:04:00;102275.27;;;19.01;28.09
40570;BME280;26270;34.428;-119.710;2023-01-27T01:06:28;102278.76;;;19.04;27.43
40570;BME280;26270;34.428;-119.710;2023-01-27T01:08:56;102284.13;;;18.81;27.84
40570;BME280;26270;34.428;-119.710;2023-01-27T01:11:25;102288.56;;;18.79;27.56
40570;BME280;26270;34.428;-119.710;2023-01-27T01:13:53;102288.35;;;18.90;27.96
40570;BME280;26270;34.428;-119.710;2023-01-27T01:16:23;102285.99;;;18.62;27.96
40570;BME280;26270;34.428;-119.710;2023-01-27T01:18:51;102287.89;;;18.63;28.27
40570;BME280;26270;34.428;-119.710;2023-01-27T01:21:22;102286.55;;;18.52;28.79
40570;BME280;26270;34.428;-119.710;2023-01-27T01:23:50;102291.76;;;18.49;30.68
40570;BME280;26270;34.428;-119.710;2023-01-27T01:26:18;102294.67;;;18.27;29.79
40570;BME280;26270;34.428;-119.710;2023-01-27T01:28:46;102294.77;;;18.14;30.87
40570;BME280;26270;34.428;-119.710;2023-01-27T01:31:18;102293.31;;;17.75;31.11
40570;BME280;26270;34.428;-119.710;2023-01-27T01:33:47;102285.26;;;17.74;30.88
40570;BME280;26270;34.428;-119.710;2023-01-27T01:36:17;102283.94;;;17.95;31.31
40570;BME280;26270;34.428;-119.710;2023-01-27T01:38:46;102285.51;;;17.70;30.82
40570;BME280;26270;34.428;-119.710;2023-01-27T01:41:16;102287.82;;;17.27;31.31
40570;BME280;26270;34.428;-119.710;2023-01-27T01:43:46;102294.55;;;17.34;31.91
40570;BME280;26270;34.428;-119.710;2023-01-27T01:46:14;102293.00;;;17.14;32.09
40570;BME280;26270;34.428;-119.710;2023-01-27T01:48:45;102293.21;;;17.26;32.47
40570;BME280;26270;34.428;-119.710;2023-01-27T01:51:19;102292.25;;;17.20;33.05
40570;BME280;26270;34.428;-119.710;2023-01-27T01:53:52;102298.82;;;17.00;32.09
40570;BME280;26270;34.428;-119.710;2023-01-27T01:56:26;102305.19;;;16.91;33.33
40570;BME280;26270;34.428;-119.710;2023-01-27T01:58:59;102307.15;;;16.95;33.05
40570;BME280;26270;34.428;-119.710;2023-01-27T02:01:30;102309.11;;;16.71;33.36
40570;BME280;26270;34.428;-119.710;2023-01-27T02:04:03;102310.97;;;16.82;33.86
40570;BME280;26270;34.428;-119.710;2023-01-27T02:06:42;102306.95;;;16.60;34.15
40570;BME280;26270;34.428;-119.710;2023-01-27T02:09:12;102311.13;;;16.64;34.16
40570;BME280;26270;34.428;-119.710;2023-01-27T02:11:41;102318.57;;;16.76;38.51
40570;BME280;26270;34.428;-119.710;2023-01-27T02:14:10;102311.55;;;16.61;35.00
40570;BME280;26270;34.428;-119.710;2023-01-27T02:16:40;102312.62;;;16.41;35.26
40570;BME280;26270;34.428;-119.710;2023-01-27T02:19:13;102311.89;;;16.40;35.31
40570;BME280;26270;34.428;-119.710;2023-01-27T02:21:48;102317.14;;;16.31;35.81
40570;BME280;26270;34.428;-119.710;2023-01-27T02:24:19;102321.39;;;16.33;36.97
40570;BME280;26270;34.428;-119.710;2023-01-27T02:26:48;102324.78;;;16.33;37.36
40570;BME280;26270;34.428;-119.710;2023-01-27T02:29:16;102325.75;;;16.23;36.54
40570;BME280;26270;34.428;-119.710;2023-01-27T02:31:44;102325.83;;;16.00;37.05
40570;BME280;26270;34.428;-119.710;2023-01-27T02:34:15;102323.92;;;15.67;36.96
40570;BME280;26270;34.428;-119.710;2023-01-27T02:36:47;102327.77;;;15.85;37.36
40570;BME280;26270;34.428;-119.710;2023-01-27T02:39:18;102324.17;;;15.60;37.08
40570;BME280;26270;34.428;-119.710;2023-01-27T02:41:51;102330.21;;;15.57;37.57
40570;BME280;26270;34.428;-119.710;2023-01-27T02:44:19;102329.17;;;15.36;38.29
40570;BME280;26270;34.428;-119.710;2023-01-27T02:46:48;102333.26;;;15.45;39.25
40570;BME280;26270;34.428;-119.710;2023-01-27T02:49:16;102332.14;;;15.49;38.63
40570;BME280;26270;34.428;-119.710;2023-01-27T02:51:44;102332.11;;;15.62;38.58
40570;BME280;26270;34.428;-119.710;2023-01-27T02:54:12;102332.30;;;14.93;38.94
40570;BME280;26270;34.428;-119.710;2023-01-27T02:56:40;102332.15;;;14.98;39.21
40570;BME280;26270;34.428;-119.710;2023-01-27T02:59:08;102336.99;;;14.62;39.87
40570;BME280;26270;34.428;-119.710;2023-01-27T03:01:36;102333.82;;;14.78;40.51
40570;BME280;26270;34.428;-119.710;2023-01-27T03:04:04;102333.79;;;14.62;40.20
40570;BME280;26270;34.428;-119.710;2023-01-27T03:06:33;102329.77;;;14.83;40.47
40570;BME280;26270;34.428;-119.710;2023-01-27T03:09:01;102328.31;;;14.66;40.88
40570;BME280;26270;34.428;-119.710;2023-01-27T03:11:29;102328.29;;;14.63;41.11
40570;BME280;26270;34.428;-119.710;2023-01-27T03:13:58;102331.02;;;14.66;41.11
40570;BME280;26270;34.428;-119.710;2023-01-27T03:16:26;102331.25;;;14.72;41.34
40570;BME280;26270;34.428;-119.710;2023-01-27T03:18:54;102332.38;;;14.40;41.99
40570;BME280;26270;34.428;-119.710;2023-01-27T03:21:22;102331.64;;;14.50;41.45
40570;BME280;26270;34.428;-119.710;2023-01-27T03:23:50;102331.12;;;14.29;41.60
40570;BME280;26270;34.428;-119.710;2023-01-27T03:26:17;102328.11;;;14.51;41.10
40570;BME280;26270;34.428;-119.710;2023-01-27T03:28:46;102330.18;;;14.64;40.53
40570;BME280;26270;34.428;-119.710;2023-01-27T03:31:14;102327.26;;;14.61;40.81
40570;BME280;26270;34.428;-119.710;2023-01-27T03:33:43;102326.53;;;14.48;40.59
40570;BME280;26270;34.428;-119.710;2023-01-27T03:36:10;102328.09;;;14.42;40.57
40570;BME280;26270;34.428;-119.710;2023-01-27T03:38:38;102326.67;;;14.12;41.05
40570;BME280;26270;34.428;-119.710;2023-01-27T03:41:06;102326.96;;;14.39;41.43
40570;BME280;26270;34.428;-119.710;2023-01-27T03:43:34;102316.71;;;13.96;41.46
40570;BME280;26270;34.428;-119.710;2023-01-27T03:46:03;102307.98;;;14.07;40.72
40570;BME280;26270;34.428;-119.710;2023-01-27T03:48:31;102309.52;;;13.72;41.15
40570;BME280;26270;34.428;-119.710;2023-01-27T03:51:00;102309.98;;;13.99;41.13
40570;BME280;26270;34.428;-119.710;2023-01-27T03:53:28;102308.22;;;13.77;41.64
40570;BME280;26270;34.428;-119.710;2023-01-27T03:55:57;102307.42;;;13.77;42.84
40570;BME280;26270;34.428;-119.710;2023-01-27T03:58:28;102302.41;;;13.93;43.11
40570;BME280;26270;34.428;-119.710;2023-01-27T04:00:58;102297.51;;;13.58;43.41
40570;BME280;26270;34.428;-119.710;2023-01-27T04:03:28;102296.15;;;13.69;43.62
40570;BME280;26270;34.428;-119.710;2023-01-27T04:05:57;102296.26;;;13.41;43.78
40570;BME280;26270;34.428;-119.710;2023-01-27T04:08:24;102297.91;;;13.49;44.13
40570;BME280;26270;34.428;-119.710;2023-01-27T04:10:52;102300.25;;;13.64;43.72
40570;BME280;26270;34.428;-119.710;2023-01-27T04:13:23;102302.11;;;13.76;43.98
40570;BME280;26270;34.428;-119.710;2023-01-27T04:15:54;102301.63;;;13.67;44.02
40570;BME280;26270;34.428;-119.710;2023-01-27T04:18:22;102300.81;;;13.67;44.11
40570;BME280;26270;34.428;-119.710;2023-01-27T04:20:50;102303.56;;;13.49;44.37
40570;BME280;26270;34.428;-119.710;2023-01-27T04:23:19;102303.11;;;12.98;45.37
40570;BME280;26270;34.428;-119.710;2023-01-27T04:25:46;102305.13;;;13.00;45.65
40570;BME280;26270;34.428;-119.710;2023-01-27T04:28:14;102307.09;;;12.93;45.95
40570;BME280;26270;34.428;-119.710;2023-01-27T04:30:42;102306.64;;;13.06;45.63
40570;BME280;26270;34.428;-119.710;2023-01-27T04:33:11;102306.25;;;12.99;45.90
40570;BME280;26270;34.428;-119.710;2023-01-27T04:35:39;102306.46;;;12.98;49.50
40570;BME280;26270;34.428;-119.710;2023-01-27T04:38:09;102302.77;;;13.07;50.57
40570;BME280;26270;34.428;-119.710;2023-01-27T04:40:37;102301.61;;;13.24;46.80
40570;BME280;26270;34.428;-119.710;2023-01-27T04:43:05;102302.07;;;13.15;46.49
40570;BME280;26270;34.428;-119.710;2023-01-27T04:45:33;102301.75;;;12.92;46.42
40570;BME280;26270;34.428;-119.710;2023-01-27T04:48:01;102300.68;;;13.00;46.36
40570;BME280;26270;34.428;-119.710;2023-01-27T04:50:29;102296.41;;;13.00;46.14
40570;BME280;26270;34.428;-119.710;2023-01-27T04:52:57;102292.65;;;13.18;46.27
40570;BME280;26270;34.428;-119.710;2023-01-27T04:55:26;102293.75;;;12.98;46.72
40570;BME280;26270;34.428;-119.710;2023-01-27T04:57:54;102291.58;;;13.04;46.93
40570;BME280;26270;34.428;-119.710;2023-01-27T05:03:19;102294.34;;;13.06;46.90
40570;BME280;26270;34.428;-119.710;2023-01-27T05:05:47;102292.23;;;13.00;47.51
40570;BME280;26270;34.428;-119.710;2023-01-27T05:08:15;102291.20;;;13.06;47.91
40570;BME280;26270;34.428;-119.710;2023-01-27T05:10:44;102294.91;;;12.82;49.45
40570;BME280;26270;34.428;-119.710;2023-01-27T05:13:12;102295.50;;;12.97;50.47
40570;BME280;26270;34.428;-119.710;2023-01-27T05:15:40;102293.70;;;12.94;47.72
40570;BME280;26270;34.428;-119.710;2023-01-27T05:18:08;102290.96;;;12.93;47.69
40570;BME280;26270;34.428;-119.710;2023-01-27T05:20:36;102290.56;;;12.73;47.04
40570;BME280;26270;34.428;-119.710;2023-01-27T05:23:04;102291.02;;;12.83;47.65
40570;BME280;26270;34.428;-119.710;2023-01-27T05:25:32;102291.81;;;12.86;46.57
40570;BME280;26270;34.428;-119.710;2023-01-27T05:27:59;102290.31;;;12.84;47.39
40570;BME280;26270;34.428;-119.710;2023-01-27T05:30:27;102285.69;;;12.86;47.94
40570;BME280;26270;34.428;-119.710;2023-01-27T05:32:55;102285.42;;;12.71;47.44
40570;BME280;26270;34.428;-119.710;2023-01-27T05:35:22;102285.16;;;12.89;47.37
40570;BME280;26270;34.428;-119.710;2023-01-27T05:37:50;102285.13;;;12.76;47.09
40570;BME280;26270;34.428;-119.710;2023-01-27T05:40:18;102286.11;;;12.83;47.19
40570;BME280;26270;34.428;-119.710;2023-01-27T05:42:46;102287.74;;;12.65;47.40
40570;BME280;26270;34.428;-119.710;2023-01-27T05:45:14;102287.78;;;12.62;47.93
40570;BME280;26270;34.428;-119.710;2023-01-27T05:47:41;102292.23;;;12.75;46.72
40570;BME280;26270;34.428;-119.710;2023-01-27T05:50:10;102300.84;;;12.75;46.85
40570;BME280;26270;34.428;-119.710;2023-01-27T05:52:38;102304.53;;;12.95;47.28
40570;BME280;26270;34.428;-119.710;2023-01-27T05:55:07;102304.39;;;12.72;47.68
40570;BME280;26270;34.428;-119.710;2023-01-27T05:57:35;102306.52;;;12.75;47.99
40570;BME280;26270;34.428;-119.710;2023-01-27T06:00:03;102307.21;;;12.50;47.99
40570;BME280;26270;34.428;-119.710;2023-01-27T06:02:31;102308.94;;;12.41;47.89
40570;BME280;26270;34.428;-119.710;2023-01-27T06:05:00;102311.69;;;12.44;49.58
40570;BME280;26270;34.428;-119.710;2023-01-27T06:07:27;102308.89;;;12.37;48.32
40570;BME280;26270;34.428;-119.710;2023-01-27T06:09:55;102312.79;;;12.19;48.16
40570;BME280;26270;34.428;-119.710;2023-01-27T06:12:23;102317.25;;;12.33;48.28
40570;BME280;26270;34.428;-119.710;2023-01-27T06:14:51;102321.62;;;12.19;49.22
40570;BME280;26270;34.428;-119.710;2023-01-27T06:17:19;102325.91;;;12.22;49.78
40570;BME280;26270;34.428;-119.710;2023-01-27T06:19:47;102329.02;;;12.21;48.51
40570;BME280;26270;34.428;-119.710;2023-01-27T06:22:14;102328.05;;;12.34;48.37
40570;BME280;26270;34.428;-119.710;2023-01-27T06:24:42;102326.89;;;11.78;49.52
40570;BME280;26270;34.428;-119.710;2023-01-27T06:27:10;102330.51;;;11.91;49.35
40570;BME280;26270;34.428;-119.710;2023-01-27T06:29:38;102333.68;;;11.96;48.78
40570;BME280;26270;34.428;-119.710;2023-01-27T06:32:06;102335.97;;;12.00;49.12
40570;BME280;26270;34.428;-119.710;2023-01-27T06:34:34;102339.79;;;11.97;49.38
40570;BME280;26270;34.428;-119.710;2023-01-27T06:37:02;102344.72;;;11.90;49.75
40570;BME280;26270;34.428;-119.710;2023-01-27T06:39:30;102356.92;;;12.10;49.08
40570;BME280;26270;34.428;-119.710;2023-01-27T06:41:57;102359.91;;;11.91;49.23
40570;BME280;26270;34.428;-119.710;2023-01-27T06:44:25;102364.55;;;11.88;49.45
40570;BME280;26270;34.428;-119.710;2023-01-27T06:46:53;102369.38;;;11.69;49.32
40570;BME280;26270;34.428;-119.710;2023-01-27T06:49:21;102372.45;;;11.64;49.71
40570;BME280;26270;34.428;-119.710;2023-01-27T06:51:48;102371.39;;;11.89;49.85
40570;BME280;26270;34.428;-119.710;2023-01-27T06:54:16;102373.59;;;11.89;49.77
40570;BME280;26270;34.428;-119.710;2023-01-27T06:56:44;102377.34;;;11.89;49.43
40570;BME280;26270;34.428;-119.710;2023-01-27T06:59:12;102381.90;;;11.71;49.87
40570;BME280;26270;34.428;-119.710;2023-01-27T07:01:39;102378.80;;;11.91;50.28
40570;BME280;26270;34.428;-119.710;2023-01-27T07:04:07;102376.08;;;11.81;50.73
40570;BME280;26270;34.428;-119.710;2023-01-27T07:06:35;102366.54;;;11.93;50.38
40570;BME280;26270;34.428;-119.710;2023-01-27T07:09:03;102367.99;;;11.66;51.10
40570;BME280;26270;34.428;-119.710;2023-01-27T07:11:30;102371.33;;;11.80;50.59
40570;BME280;26270;34.428;-119.710;2023-01-27T07:13:58;102369.85;;;11.61;51.36
40570;BME280;26270;34.428;-119.710;2023-01-27T07:16:26;102367.08;;;11.71;51.99
40570;BME280;26270;34.428;-119.710;2023-01-27T07:18:53;102367.61;;;11.62;51.90
40570;BME280;26270;34.428;-119.710;2023-01-27T07:21:22;102362.02;;;11.56;51.30
40570;BME280;26270;34.428;-119.710;2023-01-27T07:23:50;102351.89;;;11.44;52.01
40570;BME280;26270;34.428;-119.710;2023-01-27T07:26:19;102348.91;;;11.73;50.95
40570;BME280;26270;34.428;-119.710;2023-01-27T07:28:47;102345.18;;;11.37;51.66
40570;BME280;26270;34.428;-119.710;2023-01-27T07:31:15;102345.44;;;11.41;51.94
40570;BME280;26270;34.428;-119.710;2023-01-27T07:33:43;102343.51;;;11.50;52.46
40570;BME280;26270;34.428;-119.710;2023-01-27T07:36:11;102339.22;;;11.31;52.39
40570;BME280;26270;34.428;-119.710;2023-01-27T07:38:39;102336.40;;;11.29;53.09
40570;BME280;26270;34.428;-119.710;2023-01-27T07:41:07;102335.55;;;11.21;52.12
40570;BME280;26270;34.428;-119.710;2023-01-27T07:43:35;102335.19;;;11.23;52.51
40570;BME280;26270;34.428;-119.710;2023-01-27T07:46:02;102328.95;;;11.01;53.23
40570;BME280;26270;34.428;-119.710;2023-01-27T07:48:30;102321.27;;;11.28;52.99
40570;BME280;26270;34.428;-119.710;2023-01-27T07:50:58;102322.01;;;11.24;53.13
40570;BME280;26270;34.428;-119.710;2023-01-27T07:53:26;102312.61;;;11.12;52.95
40570;BME280;26270;34.428;-119.710;2023-01-27T07:55:57;102310.53;;;11.27;52.99
40570;BME280;26270;34.428;-119.710;2023-01-27T07:58:25;102305.21;;;11.36;53.31
40570;BME280;26270;34.428;-119.710;2023-01-27T08:00:53;102307.65;;;11.30;53.37
40570;BME280;26270;34.428;-119.710;2023-01-27T08:03:23;102308.54;;;11.13;53.93
40570;BME280;26270;34.428;-119.710;2023-01-27T08:05:51;102308.53;;;11.21;53.30
40570;BME280;26270;34.428;-119.710;2023-01-27T08:08:19;102302.17;;;11.20;53.75
40570;BME280;26270;34.428;-119.710;2023-01-27T08:10:47;102295.16;;;10.94;54.21
40570;BME280;26270;34.428;-119.710;2023-01-27T08:13:15;102295.17;;;10.80;54.66
40570;BME280;26270;34.428;-119.710;2023-01-27T08:15:43;102300.08;;;10.84;54.76
40570;BME280;26270;34.428;-119.710;2023-01-27T08:18:11;102296.01;;;10.92;54.93
40570;BME280;26270;34.428;-119.710;2023-01-27T08:20:39;102290.55;;;10.73;54.50
40570;BME280;26270;34.428;-119.710;2023-01-27T08:23:06;102285.37;;;10.89;54.37
40570;BME280;26270;34.428;-119.710;2023-01-27T08:25:34;102280.85;;;10.88;54.52
40570;BME280;26270;34.428;-119.710;2023-01-27T08:28:02;102276.08;;;11.05;54.24
40570;BME280;26270;34.428;-119.710;2023-01-27T08:30:29;102272.04;;;10.83;54.75
40570;BME280;26270;34.428;-119.710;2023-01-27T08:32:57;102264.58;;;11.04;55.08
40570;BME280;26270;34.428;-119.710;2023-01-27T08:35:25;102260.86;;;11.14;55.12
40570;BME280;26270;34.428;-119.710;2023-01-27T08:37:53;102256.33;;;11.10;54.92
40570;BME280;26270;34.428;-119.710;2023-01-27T08:40:21;102257.17;;;10.99;55.25
40570;BME280;26270;34.428;-119.710;2023-01-27T08:42:49;102255.73;;;11.00;55.58
40570;BME280;26270;34.428;-119.710;2023-01-27T08:45:18;102254.46;;;11.03;55.04
40570;BME280;26270;34.428;-119.710;2023-01-27T08:47:45;102251.04;;;10.79;55.88
40570;BME280;26270;34.428;-119.710;2023-01-27T08:50:13;102250.25;;;10.90;55.92
40570;BME280;26270;34.428;-119.710;2023-01-27T08:52:41;102245.86;;;10.92;56.02
40570;BME280;26270;34.428;-119.710;2023-01-27T08:55:08;102238.36;;;10.98;55.59
40570;BME280;26270;34.428;-119.710;2023-01-27T08:57:37;102242.16;;;10.94;55.49
40570;BME280;26270;34.428;-119.710;2023-01-27T09:00:07;102247.06;;;10.58;57.97
40570;BME280;26270;34.428;-119.710;2023-01-27T09:02:35;102246.70;;;10.45;59.14
40570;BME280;26270;34.428;-119.710;2023-01-27T09:05:04;102243.20;;;10.73;59.34
40570;BME280;26270;34.428;-119.710;2023-01-27T09:07:32;102244.80;;;10.81;58.70
40570;BME280;26270;34.428;-119.710;2023-01-27T09:10:01;102238.85;;;10.90;58.33
40570;BME280;26270;34.428;-119.710;2023-01-27T09:12:29;102240.07;;;10.63;59.48
40570;BME280;26270;34.428;-119.710;2023-01-27T09:14:56;102234.90;;;10.65;59.40
40570;BME280;26270;34.428;-119.710;2023-01-27T09:17:25;102234.16;;;10.70;59.64
40570;BME280;26270;34.428;-119.710;2023-01-27T09:19:53;102237.65;;;10.72;59.19
40570;BME280;26270;34.428;-119.710;2023-01-27T09:22:21;102239.79;;;10.74;59.24
40570;BME280;26270;34.428;-119.710;2023-01-27T09:24:48;102242.88;;;10.48;59.83
40570;BME280;26270;34.428;-119.710;2023-01-27T09:27:16;102240.54;;;10.75;59.08
40570;BME280;26270;34.428;-119.710;2023-01-27T09:29:44;102238.78;;;10.80;59.69
40570;BME280;26270;34.428;-119.710;2023-01-27T09:32:11;102240.65;;;10.61;60.27
40570;BME280;26270;34.428;-119.710;2023-01-27T09:34:39;102236.61;;;10.45;60.92
40570;BME280;26270;34.428;-119.710;2023-01-27T09:37:09;102235.06;;;10.65;60.86
40570;BME280;26270;34.428;-119.710;2023-01-27T09:39:41;102233.04;;;10.57;60.73
40570;BME280;26270;34.428;-119.710;2023-01-27T09:42:32;102231.59;;;10.88;60.25
40570;BME280;26270;34.428;-119.710;2023-01-27T09:45:19;102231.70;;;10.70;60.25
40570;BME280;26270;34.428;-119.710;2023-01-27T09:48:02;102230.63;;;10.67;60.51
40570;BME280;26270;34.428;-119.710;2023-01-27T09:50:42;102231.07;;;10.52;60.00
40570;BME280;26270;34.428;-119.710;2023-01-27T09:53:59;102227.24;;;10.57;61.29
40570;BME280;26270;34.428;-119.710;2023-01-27T09:56:40;102220.29;;;10.52;61.04
40570;BME280;26270;34.428;-119.710;2023-01-27T09:59:21;102213.38;;;10.65;60.76
40570;BME280;26270;34.428;-119.710;2023-01-27T10:02:00;102206.36;;;10.64;60.91
40570;BME280;26270;34.428;-119.710;2023-01-27T10:04:54;102203.95;;;10.52;61.58
40570;BME280;26270;34.428;-119.710;2023-01-27T10:07:44;102197.94;;;10.79;60.35
40570;BME280;26270;34.428;-119.710;2023-01-27T10:10:25;102197.38;;;10.74;60.27
40570;BME280;26270;34.428;-119.710;2023-01-27T10:13:09;102194.91;;;10.49;61.13
40570;BME280;26270;34.428;-119.710;2023-01-27T10:15:51;102190.15;;;10.49;61.85
40570;BME280;26270;34.428;-119.710;2023-01-27T10:18:33;102183.72;;;10.55;61.15
40570;BME280;26270;34.428;-119.710;2023-01-27T10:21:13;102173.30;;;10.57;60.90
40570;BME280;26270;34.428;-119.710;2023-01-27T10:23:52;102173.11;;;10.54;61.52
40570;BME280;26270;34.428;-119.710;2023-01-27T10:26:30;102169.37;;;10.61;61.34
40570;BME280;26270;34.428;-119.710;2023-01-27T10:29:07;102171.87;;;10.22;61.50
40570;BME280;26270;34.428;-119.710;2023-01-27T10:31:38;102168.60;;;10.41;61.76
40570;BME280;26270;34.428;-119.710;2023-01-27T10:34:22;102164.69;;;10.20;61.45
40570;BME280;26270;34.428;-119.710;2023-01-27T10:37:00;102160.46;;;10.24;61.05
40570;BME280;26270;34.428;-119.710;2023-01-27T10:39:35;102152.66;;;10.14;62.02
40570;BME280;26270;34.428;-119.710;2023-01-27T10:42:13;102148.24;;;9.99;62.82
40570;BME280;26270;34.428;-119.710;2023-01-27T10:44:58;102148.65;;;9.61;63.99
40570;BME280;26270;34.428;-119.710;2023-01-27T10:47:36;102145.03;;;10.27;63.11
40570;BME280;26270;34.428;-119.710;2023-01-27T10:50:17;102135.27;;;10.24;62.46
40570;BME280;26270;34.428;-119.710;2023-01-27T10:52:51;102129.12;;;10.09;62.81
40570;BME280;26270;34.428;-119.710;2023-01-27T10:55:24;102122.16;;;10.13;62.83
40570;BME280;26270;34.428;-119.710;2023-01-27T10:57:58;102118.97;;;10.08;63.09
40570;BME280;26270;34.428;-119.710;2023-01-27T11:00:31;102113.77;;;10.38;61.31
40570;BME280;26270;34.428;-119.710;2023-01-27T11:03:05;102113.88;;;10.02;62.51
40570;BME280;26270;34.428;-119.710;2023-01-27T11:05:38;102110.87;;;10.18;62.82
40570;BME280;26270;34.428;-119.710;2023-01-27T11:08:12;102112.45;;;9.96;62.93
40570;BME280;26270;34.428;-119.710;2023-01-27T11:10:45;102106.04;;;10.19;61.77
40570;BME280;26270;34.428;-119.710;2023-01-27T11:13:14;102103.41;;;9.97;62.40
40570;BME280;26270;34.428;-119.710;2023-01-27T11:15:43;102100.59;;;10.01;62.21
40570;BME280;26270;34.428;-119.710;2023-01-27T11:18:14;102100.44;;;10.12;61.64
40570;BME280;26270;34.428;-119.710;2023-01-27T11:20:46;102099.83;;;9.77;62.47
40570;BME280;26270;34.428;-119.710;2023-01-27T11:23:18;102097.15;;;9.71;62.79
40570;BME280;26270;34.428;-119.710;2023-01-27T11:25:54;102093.30;;;9.65;62.66
40570;BME280;26270;34.428;-119.710;2023-01-27T11:28:30;102088.65;;;9.72;62.41
40570;BME280;26270;34.428;-119.710;2023-01-27T11:31:06;102084.92;;;9.81;62.66
40570;BME280;26270;34.428;-119.710;2023-01-27T11:33:49;102083.32;;;9.91;61.85
40570;BME280;26270;34.428;-119.710;2023-01-27T11:36:20;102076.24;;;9.99;59.98
40570;BME280;26270;34.428;-119.710;2023-01-27T11:38:48;102077.96;;;9.69;60.26
40570;BME280;26270;34.428;-119.710;2023-01-27T11:41:16;102078.70;;;9.55;61.09
40570;BME280;26270;34.428;-119.710;2023-01-27T11:43:44;102077.56;;;9.75;61.17
40570;BME280;26270;34.428;-119.710;2023-01-27T11:46:14;102078.56;;;9.56;60.89
40570;BME280;26270;34.428;-119.710;2023-01-27T11:48:47;102080.60;;;9.58;60.88
40570;BME280;26270;34.428;-119.710;2023-01-27T11:51:20;102077.14;;;9.72;59.55
40570;BME280;26270;34.428;-119.710;2023-01-27T11:53:54;102071.22;;;9.73;58.73
40570;BME280;26270;34.428;-119.710;2023-01-27T11:56:23;102064.11;;;9.97;58.76
40570;BME280;26270;34.428;-119.710;2023-01-27T11:58:58;102061.66;;;10.05;59.10
40570;BME280;26270;34.428;-119.710;2023-01-27T12:01:38;102065.79;;;10.13;57.89
40570;BME280;26270;34.428;-119.710;2023-01-27T12:04:13;102071.94;;;9.84;56.75
40570;BME280;26270;34.428;-119.710;2023-01-27T12:06:48;102071.59;;;9.73;57.55
40570;BME280;26270;34.428;-119.710;2023-01-27T12:09:31;102070.87;;;9.63;57.74
40570;BME280;26270;34.428;-119.710;2023-01-27T12:12:21;102068.58;;;9.47;57.58
40570;BME280;26270;34.428;-119.710;2023-01-27T12:14:51;102062.83;;;9.61;56.12
40570;BME280;26270;34.428;-119.710;2023-01-27T12:17:26;102059.50;;;9.67;56.32
40570;BME280;26270;34.428;-119.710;2023-01-27T12:19:59;102060.44;;;9.55;56.86
40570;BME280;26270;34.428;-119.710;2023-01-27T12:22:32;102054.68;;;8.51;59.03
40570;BME280;26270;34.428;-119.710;2023-01-27T12:25:03;102049.88;;;8.74;58.92
40570;BME280;26270;34.428;-119.710;2023-01-27T12:27:50;102049.81;;;9.16;58.57
40570;BME280;26270;34.428;-119.710;2023-01-27T12:30:22;102047.58;;;9.21;59.05
40570;BME280;26270;34.428;-119.710;2023-01-27T12:32:52;102048.05;;;9.15;58.85
40570;BME280;26270;34.428;-119.710;2023-01-27T12:35:23;102041.49;;;9.28;58.30
40570;BME280;26270;34.428;-119.710;2023-01-27T12:37:56;102042.52;;;9.12;59.04
40570;BME280;26270;34.428;-119.710;2023-01-27T12:40:26;102037.81;;;8.98;59.51